KGUP/GUP METAR and TAF weather

Enter ICAO airport designator
Station Type Date Time Source
KGUP METAR 2020/07/12 17:53 UTC NOAA

KGUP 121753Z AUTO 23007KT 10SM CLR 31/03 A3031 RMK AO2 SLP047 T03060033 10311 20156 56007


Station Type Date Time Source
KGUP Decoded METAR 2020/07/12 17:53 UTC NOAA

GALLUP MUNICIPAL AIRPORT, NM, United States (KGUP) 35-31N 108-47W 1971M
Jul 12, 2020 - 01:53 PM EDT / 2020.07.12 1753 UTC
Wind: from the SW (230 degrees) at 8 MPH (7 KT):0
Visibility: 10 mile(s):0
Sky conditions: clear
Temperature: 87.1 F (30.6 C)
Dew Point: 37.9 F (3.3 C)
Relative Humidity: 17%
Pressure (altimeter): 30.31 in. Hg (1026 hPa)
Pressure tendency: 0.02 inches (0.7 hPa) lower than three hours ago
ob: KGUP 121753Z AUTO 23007KT 10SM CLR 31/03 A3031 RMK AO2 SLP047 T03060033 10311 20156 56007
cycle: 18

Station Type Date Time Source
KGUP TAF 2020/07/12 18:30 UTC NOAA

TAF KGUP 121727Z 1218/1318 26006KT P6SM SCT150
FM122000 26012G20KT P6SM SCT150
FM122200 16012G20KT P6SM VCSH BKN150
TEMPO 1223/1302 VRB20G34KT BKN120
FM130200 21010KT P6SM BKN130
FM130700 VRB06KT P6SM BKN120
FM131500 23007KT P6SM SCT120

Example: see airport list